sensor_id;sensor_type;location;lat;lon;timestamp;P1;durP1;ratioP1;P2;durP2;ratioP2
21825;SDS011;11075;47.944;11.776;2022-11-15T00:00:12;10.00;;;5.83;;
21825;SDS011;11075;47.944;11.776;2022-11-15T00:02:57;11.00;;;6.73;;
21825;SDS011;11075;47.944;11.776;2022-11-15T00:05:43;9.40;;;5.87;;
21825;SDS011;11075;47.944;11.776;2022-11-15T00:08:32;10.03;;;5.90;;
21825;SDS011;11075;47.944;11.776;2022-11-15T00:11:17;11.83;;;6.77;;
21825;SDS011;11075;47.944;11.776;2022-11-15T00:14:03;12.70;;;7.43;;
21825;SDS011;11075;47.944;11.776;2022-11-15T00:16:48;35.33;;;15.87;;
21825;SDS011;11075;47.944;11.776;2022-11-15T00:19:34;13.10;;;6.77;;
21825;SDS011;11075;47.944;11.776;2022-11-15T00:22:19;9.87;;;6.13;;
21825;SDS011;11075;47.944;11.776;2022-11-15T00:25:05;9.67;;;5.63;;
21825;SDS011;11075;47.944;11.776;2022-11-15T00:27:54;10.17;;;5.87;;
21825;SDS011;11075;47.944;11.776;2022-11-15T00:30:40;10.50;;;6.07;;
21825;SDS011;11075;47.944;11.776;2022-11-15T00:33:26;11.63;;;5.90;;
21825;SDS011;11075;47.944;11.776;2022-11-15T00:36:11;9.67;;;6.00;;
21825;SDS011;11075;47.944;11.776;2022-11-15T00:38:57;10.57;;;6.20;;
21825;SDS011;11075;47.944;11.776;2022-11-15T00:41:42;11.20;;;6.03;;
21825;SDS011;11075;47.944;11.776;2022-11-15T00:44:28;8.10;;;5.73;;
21825;SDS011;11075;47.944;11.776;2022-11-15T00:47:13;10.47;;;5.77;;
21825;SDS011;11075;47.944;11.776;2022-11-15T00:49:58;13.93;;;7.10;;
21825;SDS011;11075;47.944;11.776;2022-11-15T00:52:45;13.57;;;8.40;;
21825;SDS011;11075;47.944;11.776;2022-11-15T00:55:30;9.43;;;6.10;;
21825;SDS011;11075;47.944;11.776;2022-11-15T00:58:16;10.17;;;6.07;;
21825;SDS011;11075;47.944;11.776;2022-11-15T01:01:05;8.63;;;6.00;;
21825;SDS011;11075;47.944;11.776;2022-11-15T01:03:55;13.33;;;6.70;;
21825;SDS011;11075;47.944;11.776;2022-11-15T01:06:45;10.63;;;5.20;;
21825;SDS011;11075;47.944;11.776;2022-11-15T01:09:30;10.47;;;5.50;;
21825;SDS011;11075;47.944;11.776;2022-11-15T01:12:16;13.57;;;7.37;;
21825;SDS011;11075;47.944;11.776;2022-11-15T01:15:01;12.33;;;6.43;;
21825;SDS011;11075;47.944;11.776;2022-11-15T01:17:47;9.07;;;5.67;;
21825;SDS011;11075;47.944;11.776;2022-11-15T01:20:32;8.03;;;5.10;;
21825;SDS011;11075;47.944;11.776;2022-11-15T01:23:18;8.73;;;4.87;;
21825;SDS011;11075;47.944;11.776;2022-11-15T01:26:03;20.57;;;9.17;;
21825;SDS011;11075;47.944;11.776;2022-11-15T01:28:50;14.57;;;6.27;;
21825;SDS011;11075;47.944;11.776;2022-11-15T01:31:36;10.47;;;5.33;;
21825;SDS011;11075;47.944;11.776;2022-11-15T01:34:22;7.60;;;4.93;;
21825;SDS011;11075;47.944;11.776;2022-11-15T01:37:08;9.73;;;5.43;;
21825;SDS011;11075;47.944;11.776;2022-11-15T01:39:54;10.23;;;5.37;;
21825;SDS011;11075;47.944;11.776;2022-11-15T01:42:39;8.03;;;5.53;;
21825;SDS011;11075;47.944;11.776;2022-11-15T01:45:24;8.20;;;4.87;;
21825;SDS011;11075;47.944;11.776;2022-11-15T01:48:10;7.47;;;4.43;;
21825;SDS011;11075;47.944;11.776;2022-11-15T01:50:56;7.10;;;4.40;;
21825;SDS011;11075;47.944;11.776;2022-11-15T01:53:42;6.53;;;4.40;;
21825;SDS011;11075;47.944;11.776;2022-11-15T01:56:33;7.80;;;4.43;;
21825;SDS011;11075;47.944;11.776;2022-11-15T01:59:23;7.63;;;5.03;;
21825;SDS011;11075;47.944;11.776;2022-11-15T02:02:09;9.33;;;4.43;;
21825;SDS011;11075;47.944;11.776;2022-11-15T02:04:55;5.77;;;4.13;;
21825;SDS011;11075;47.944;11.776;2022-11-15T02:07:41;6.70;;;4.30;;
21825;SDS011;11075;47.944;11.776;2022-11-15T02:10:27;9.33;;;5.00;;
21825;SDS011;11075;47.944;11.776;2022-11-15T02:13:13;7.83;;;4.37;;
21825;SDS011;11075;47.944;11.776;2022-11-15T02:27:53;9.97;;;4.17;;
21825;SDS011;11075;47.944;11.776;2022-11-15T02:34:05;6.60;;;4.03;;
21825;SDS011;11075;47.944;11.776;2022-11-15T02:46:46;6.43;;;3.83;;
21825;SDS011;11075;47.944;11.776;2022-11-15T02:49:55;7.77;;;4.20;;
21825;SDS011;11075;47.944;11.776;2022-11-15T02:52:53;7.27;;;3.97;;
21825;SDS011;11075;47.944;11.776;2022-11-15T02:55:46;8.20;;;4.80;;
21825;SDS011;11075;47.944;11.776;2022-11-15T03:04:56;7.57;;;4.30;;
21825;SDS011;11075;47.944;11.776;2022-11-15T03:16:48;7.90;;;4.47;;
21825;SDS011;11075;47.944;11.776;2022-11-15T03:19:47;5.60;;;3.57;;
21825;SDS011;11075;47.944;11.776;2022-11-15T03:22:39;9.17;;;4.10;;
21825;SDS011;11075;47.944;11.776;2022-11-15T03:25:28;8.30;;;4.40;;
21825;SDS011;11075;47.944;11.776;2022-11-15T03:28:18;8.50;;;3.80;;
21825;SDS011;11075;47.944;11.776;2022-11-15T03:31:10;5.63;;;3.70;;
21825;SDS011;11075;47.944;11.776;2022-11-15T03:37:10;4.93;;;3.53;;
21825;SDS011;11075;47.944;11.776;2022-11-15T03:39:59;5.80;;;3.90;;
21825;SDS011;11075;47.944;11.776;2022-11-15T03:42:51;7.27;;;3.63;;
21825;SDS011;11075;47.944;11.776;2022-11-15T03:45:46;4.90;;;3.50;;
21825;SDS011;11075;47.944;11.776;2022-11-15T03:48:41;5.47;;;3.37;;
21825;SDS011;11075;47.944;11.776;2022-11-15T03:51:39;8.00;;;3.87;;
21825;SDS011;11075;47.944;11.776;2022-11-15T03:54:25;6.17;;;3.60;;
21825;SDS011;11075;47.944;11.776;2022-11-15T03:57:10;6.20;;;3.70;;
21825;SDS011;11075;47.944;11.776;2022-11-15T03:59:56;6.33;;;3.17;;
21825;SDS011;11075;47.944;11.776;2022-11-15T04:02:42;5.00;;;3.20;;
21825;SDS011;11075;47.944;11.776;2022-11-15T04:05:27;7.57;;;3.40;;
21825;SDS011;11075;47.944;11.776;2022-11-15T04:08:12;6.90;;;4.30;;
21825;SDS011;11075;47.944;11.776;2022-11-15T04:10:58;6.63;;;3.07;;
21825;SDS011;11075;47.944;11.776;2022-11-15T04:13:46;5.00;;;3.27;;
21825;SDS011;11075;47.944;11.776;2022-11-15T04:16:31;5.43;;;3.50;;
21825;SDS011;11075;47.944;11.776;2022-11-15T04:19:16;5.40;;;3.30;;
21825;SDS011;11075;47.944;11.776;2022-11-15T04:22:20;4.87;;;3.17;;
21825;SDS011;11075;47.944;11.776;2022-11-15T04:25:29;4.77;;;2.90;;
21825;SDS011;11075;47.944;11.776;2022-11-15T04:28:16;6.03;;;3.37;;
21825;SDS011;11075;47.944;11.776;2022-11-15T04:31:01;4.80;;;3.47;;
21825;SDS011;11075;47.944;11.776;2022-11-15T04:33:47;5.00;;;2.97;;
21825;SDS011;11075;47.944;11.776;2022-11-15T04:36:32;3.67;;;2.93;;
21825;SDS011;11075;47.944;11.776;2022-11-15T04:39:36;6.57;;;3.40;;
21825;SDS011;11075;47.944;11.776;2022-11-15T04:42:22;4.93;;;3.23;;
21825;SDS011;11075;47.944;11.776;2022-11-15T04:45:07;8.33;;;3.60;;
21825;SDS011;11075;47.944;11.776;2022-11-15T04:47:53;3.70;;;2.83;;
21825;SDS011;11075;47.944;11.776;2022-11-15T04:50:39;4.53;;;3.00;;
21825;SDS011;11075;47.944;11.776;2022-11-15T04:53:25;4.50;;;3.20;;
21825;SDS011;11075;47.944;11.776;2022-11-15T04:56:11;4.53;;;3.37;;
21825;SDS011;11075;47.944;11.776;2022-11-15T04:58:56;6.73;;;3.90;;
21825;SDS011;11075;47.944;11.776;2022-11-15T05:01:41;4.67;;;2.90;;
21825;SDS011;11075;47.944;11.776;2022-11-15T05:04:29;4.73;;;3.17;;
21825;SDS011;11075;47.944;11.776;2022-11-15T05:07:14;5.17;;;3.37;;
21825;SDS011;11075;47.944;11.776;2022-11-15T05:09:59;5.27;;;3.00;;
21825;SDS011;11075;47.944;11.776;2022-11-15T05:12:46;5.03;;;3.40;;
21825;SDS011;11075;47.944;11.776;2022-11-15T05:15:32;6.87;;;3.07;;
21825;SDS011;11075;47.944;11.776;2022-11-15T05:18:17;4.93;;;3.30;;
21825;SDS011;11075;47.944;11.776;2022-11-15T05:21:08;6.00;;;3.40;;
21825;SDS011;11075;47.944;11.776;2022-11-15T05:23:56;4.97;;;3.33;;
21825;SDS011;11075;47.944;11.776;2022-11-15T05:26:41;7.20;;;4.03;;
21825;SDS011;11075;47.944;11.776;2022-11-15T05:29:26;5.40;;;3.53;;
21825;SDS011;11075;47.944;11.776;2022-11-15T05:32:12;6.13;;;3.50;;
21825;SDS011;11075;47.944;11.776;2022-11-15T05:34:58;6.73;;;3.60;;
21825;SDS011;11075;47.944;11.776;2022-11-15T05:37:43;6.07;;;3.77;;
21825;SDS011;11075;47.944;11.776;2022-11-15T05:40:29;4.93;;;3.07;;
21825;SDS011;11075;47.944;11.776;2022-11-15T05:43:16;5.87;;;3.50;;
21825;SDS011;11075;47.944;11.776;2022-11-15T05:46:01;5.13;;;3.43;;
21825;SDS011;11075;47.944;11.776;2022-11-15T05:48:49;5.17;;;2.93;;
21825;SDS011;11075;47.944;11.776;2022-11-15T05:51:36;4.07;;;2.70;;
21825;SDS011;11075;47.944;11.776;2022-11-15T05:54:21;3.20;;;2.23;;
21825;SDS011;11075;47.944;11.776;2022-11-15T05:57:08;3.20;;;2.57;;
21825;SDS011;11075;47.944;11.776;2022-11-15T05:59:53;4.77;;;2.70;;
21825;SDS011;11075;47.944;11.776;2022-11-15T06:02:40;5.10;;;3.10;;
21825;SDS011;11075;47.944;11.776;2022-11-15T06:05:26;3.43;;;2.63;;
21825;SDS011;11075;47.944;11.776;2022-11-15T06:08:11;4.50;;;2.67;;
21825;SDS011;11075;47.944;11.776;2022-11-15T06:11:02;3.53;;;2.33;;
21825;SDS011;11075;47.944;11.776;2022-11-15T06:13:48;3.97;;;2.77;;
21825;SDS011;11075;47.944;11.776;2022-11-15T06:16:34;7.47;;;2.60;;
21825;SDS011;11075;47.944;11.776;2022-11-15T06:19:19;3.37;;;2.60;;
21825;SDS011;11075;47.944;11.776;2022-11-15T06:22:04;4.73;;;2.80;;
21825;SDS011;11075;47.944;11.776;2022-11-15T06:24:50;8.37;;;3.60;;
21825;SDS011;11075;47.944;11.776;2022-11-15T06:27:35;5.47;;;3.23;;
21825;SDS011;11075;47.944;11.776;2022-11-15T06:30:21;4.23;;;3.10;;
21825;SDS011;11075;47.944;11.776;2022-11-15T06:33:07;4.33;;;2.80;;
21825;SDS011;11075;47.944;11.776;2022-11-15T06:35:53;4.47;;;3.13;;
21825;SDS011;11075;47.944;11.776;2022-11-15T06:38:38;5.53;;;3.40;;
21825;SDS011;11075;47.944;11.776;2022-11-15T06:41:25;3.70;;;2.57;;
21825;SDS011;11075;47.944;11.776;2022-11-15T06:44:10;6.60;;;3.53;;
21825;SDS011;11075;47.944;11.776;2022-11-15T06:46:57;5.73;;;3.80;;
21825;SDS011;11075;47.944;11.776;2022-11-15T06:49:42;5.87;;;4.10;;
21825;SDS011;11075;47.944;11.776;2022-11-15T06:52:27;6.10;;;3.73;;
21825;SDS011;11075;47.944;11.776;2022-11-15T06:55:17;5.23;;;3.43;;
21825;SDS011;11075;47.944;11.776;2022-11-15T06:58:02;5.10;;;3.30;;
21825;SDS011;11075;47.944;11.776;2022-11-15T07:00:48;6.47;;;3.63;;
21825;SDS011;11075;47.944;11.776;2022-11-15T07:03:37;4.87;;;3.53;;
21825;SDS011;11075;47.944;11.776;2022-11-15T07:06:23;6.07;;;3.87;;
21825;SDS011;11075;47.944;11.776;2022-11-15T07:09:08;8.40;;;4.07;;
21825;SDS011;11075;47.944;11.776;2022-11-15T07:11:54;5.10;;;3.53;;
21825;SDS011;11075;47.944;11.776;2022-11-15T07:14:39;6.93;;;3.70;;
21825;SDS011;11075;47.944;11.776;2022-11-15T07:17:24;6.67;;;4.20;;
21825;SDS011;11075;47.944;11.776;2022-11-15T07:20:11;7.00;;;3.47;;
21825;SDS011;11075;47.944;11.776;2022-11-15T07:23:02;6.10;;;4.17;;
21825;SDS011;11075;47.944;11.776;2022-11-15T07:25:48;4.77;;;3.33;;
21825;SDS011;11075;47.944;11.776;2022-11-15T07:28:34;5.90;;;3.93;;
21825;SDS011;11075;47.944;11.776;2022-11-15T07:31:19;5.10;;;4.10;;
21825;SDS011;11075;47.944;11.776;2022-11-15T07:34:05;6.43;;;3.77;;
21825;SDS011;11075;47.944;11.776;2022-11-15T07:36:50;6.00;;;4.00;;
21825;SDS011;11075;47.944;11.776;2022-11-15T07:39:35;7.17;;;3.90;;
21825;SDS011;11075;47.944;11.776;2022-11-15T07:42:21;5.10;;;3.10;;
21825;SDS011;11075;47.944;11.776;2022-11-15T07:45:25;2.97;;;2.60;;
21825;SDS011;11075;47.944;11.776;2022-11-15T07:48:13;6.97;;;2.97;;
21825;SDS011;11075;47.944;11.776;2022-11-15T07:50:59;5.70;;;3.77;;
21825;SDS011;11075;47.944;11.776;2022-11-15T07:53:44;4.90;;;3.83;;
21825;SDS011;11075;47.944;11.776;2022-11-15T07:56:30;5.87;;;3.97;;
21825;SDS011;11075;47.944;11.776;2022-11-15T07:59:15;5.53;;;2.87;;
21825;SDS011;11075;47.944;11.776;2022-11-15T08:02:00;7.07;;;3.53;;
21825;SDS011;11075;47.944;11.776;2022-11-15T08:04:46;4.20;;;2.70;;
21825;SDS011;11075;47.944;11.776;2022-11-15T08:07:32;5.03;;;3.27;;
21825;SDS011;11075;47.944;11.776;2022-11-15T08:10:17;6.13;;;3.00;;
21825;SDS011;11075;47.944;11.776;2022-11-15T08:13:05;5.33;;;3.17;;
21825;SDS011;11075;47.944;11.776;2022-11-15T08:15:57;3.73;;;2.80;;
21825;SDS011;11075;47.944;11.776;2022-11-15T08:18:44;9.77;;;3.40;;
21825;SDS011;11075;47.944;11.776;2022-11-15T08:21:29;4.50;;;3.07;;
21825;SDS011;11075;47.944;11.776;2022-11-15T08:24:15;3.77;;;2.83;;
21825;SDS011;11075;47.944;11.776;2022-11-15T08:27:00;6.03;;;3.10;;
21825;SDS011;11075;47.944;11.776;2022-11-15T08:29:45;5.20;;;3.10;;
21825;SDS011;11075;47.944;11.776;2022-11-15T08:32:31;3.93;;;3.10;;
21825;SDS011;11075;47.944;11.776;2022-11-15T08:35:18;4.73;;;2.93;;
21825;SDS011;11075;47.944;11.776;2022-11-15T08:38:11;4.27;;;3.13;;
21825;SDS011;11075;47.944;11.776;2022-11-15T08:41:02;6.37;;;3.00;;
21825;SDS011;11075;47.944;11.776;2022-11-15T08:43:48;6.37;;;2.90;;
21825;SDS011;11075;47.944;11.776;2022-11-15T08:46:34;3.40;;;2.77;;
21825;SDS011;11075;47.944;11.776;2022-11-15T08:49:19;4.80;;;3.00;;
21825;SDS011;11075;47.944;11.776;2022-11-15T08:52:05;7.97;;;2.67;;
21825;SDS011;11075;47.944;11.776;2022-11-15T08:54:50;3.10;;;2.20;;
21825;SDS011;11075;47.944;11.776;2022-11-15T08:57:35;3.77;;;2.87;;
21825;SDS011;11075;47.944;11.776;2022-11-15T09:00:21;4.67;;;2.87;;
21825;SDS011;11075;47.944;11.776;2022-11-15T09:03:06;3.77;;;2.90;;
21825;SDS011;11075;47.944;11.776;2022-11-15T09:05:55;3.43;;;3.00;;
21825;SDS011;11075;47.944;11.776;2022-11-15T09:08:45;4.33;;;2.50;;
21825;SDS011;11075;47.944;11.776;2022-11-15T09:11:32;3.50;;;2.60;;
21825;SDS011;11075;47.944;11.776;2022-11-15T09:14:17;5.90;;;2.90;;
21825;SDS011;11075;47.944;11.776;2022-11-15T09:17:03;3.73;;;2.87;;
21825;SDS011;11075;47.944;11.776;2022-11-15T09:19:48;4.33;;;3.10;;
21825;SDS011;11075;47.944;11.776;2022-11-15T09:22:33;3.43;;;2.47;;
21825;SDS011;11075;47.944;11.776;2022-11-15T09:25:19;2.80;;;2.47;;
21825;SDS011;11075;47.944;11.776;2022-11-15T09:28:08;3.33;;;2.80;;
21825;SDS011;11075;47.944;11.776;2022-11-15T09:31:04;2.97;;;2.47;;
21825;SDS011;11075;47.944;11.776;2022-11-15T09:33:50;3.13;;;2.83;;
21825;SDS011;11075;47.944;11.776;2022-11-15T09:36:36;3.60;;;2.60;;
21825;SDS011;11075;47.944;11.776;2022-11-15T09:39:21;2.67;;;2.33;;
21825;SDS011;11075;47.944;11.776;2022-11-15T09:45:28;2.40;;;2.20;;
21825;SDS011;11075;47.944;11.776;2022-11-15T09:48:40;3.90;;;2.75;;
21825;SDS011;11075;47.944;11.776;2022-11-15T09:51:48;2.65;;;2.35;;
21825;SDS011;11075;47.944;11.776;2022-11-15T09:57:32;3.72;;;1.80;;
21825;SDS011;11075;47.944;11.776;2022-11-15T10:05:42;4.38;;;2.13;;
21825;SDS011;11075;47.944;11.776;2022-11-15T10:10:57;2.53;;;2.10;;
21825;SDS011;11075;47.944;11.776;2022-11-15T10:13:47;2.95;;;2.17;;
21825;SDS011;11075;47.944;11.776;2022-11-15T10:21:29;3.00;;;1.92;;
21825;SDS011;11075;47.944;11.776;2022-11-15T10:24:12;4.85;;;2.33;;
21825;SDS011;11075;47.944;11.776;2022-11-15T10:26:47;3.97;;;2.20;;
21825;SDS011;11075;47.944;11.776;2022-11-15T10:29:18;5.03;;;2.30;;
21825;SDS011;11075;47.944;11.776;2022-11-15T10:31:52;3.15;;;2.40;;
21825;SDS011;11075;47.944;11.776;2022-11-15T10:34:20;5.20;;;2.25;;
21825;SDS011;11075;47.944;11.776;2022-11-15T10:36:58;2.92;;;2.30;;
21825;SDS011;11075;47.944;11.776;2022-11-15T10:39:29;5.18;;;2.65;;
21825;SDS011;11075;47.944;11.776;2022-11-15T10:41:56;3.15;;;2.60;;
21825;SDS011;11075;47.944;11.776;2022-11-15T10:44:25;2.75;;;2.42;;
21825;SDS011;11075;47.944;11.776;2022-11-15T10:49:24;6.60;;;2.30;;
21825;SDS011;11075;47.944;11.776;2022-11-15T10:51:53;2.78;;;2.50;;
21825;SDS011;11075;47.944;11.776;2022-11-15T10:54:28;6.32;;;3.20;;
21825;SDS011;11075;47.944;11.776;2022-11-15T10:57:00;6.47;;;5.75;;
21825;SDS011;11075;47.944;11.776;2022-11-15T10:59:35;6.75;;;6.15;;
21825;SDS011;11075;47.944;11.776;2022-11-15T11:05:05;5.88;;;4.25;;
21825;SDS011;11075;47.944;11.776;2022-11-15T11:07:56;4.28;;;3.20;;
21825;SDS011;11075;47.944;11.776;2022-11-15T11:10:26;3.05;;;2.75;;
21825;SDS011;11075;47.944;11.776;2022-11-15T11:13:15;5.18;;;3.65;;
21825;SDS011;11075;47.944;11.776;2022-11-15T11:15:52;3.10;;;2.60;;
21825;SDS011;11075;47.944;11.776;2022-11-15T11:29:49;4.13;;;3.28;;
21825;SDS011;11075;47.944;11.776;2022-11-15T11:32:34;4.38;;;2.70;;
21825;SDS011;11075;47.944;11.776;2022-11-15T11:35:13;2.88;;;2.58;;
21825;SDS011;11075;47.944;11.776;2022-11-15T11:38:34;3.75;;;2.80;;
21825;SDS011;11075;47.944;11.776;2022-11-15T11:49:07;3.05;;;2.42;;
21825;SDS011;11075;47.944;11.776;2022-11-15T11:55:03;2.45;;;2.17;;
21825;SDS011;11075;47.944;11.776;2022-11-15T11:57:44;4.80;;;2.03;;
21825;SDS011;11075;47.944;11.776;2022-11-15T12:00:21;3.00;;;2.15;;
21825;SDS011;11075;47.944;11.776;2022-11-15T12:05:43;5.13;;;2.72;;
21825;SDS011;11075;47.944;11.776;2022-11-15T12:08:22;4.65;;;2.60;;
21825;SDS011;11075;47.944;11.776;2022-11-15T12:10:59;2.63;;;2.38;;
21825;SDS011;11075;47.944;11.776;2022-11-15T12:13:34;2.58;;;2.35;;
21825;SDS011;11075;47.944;11.776;2022-11-15T12:16:09;3.10;;;2.53;;
21825;SDS011;11075;47.944;11.776;2022-11-15T12:18:50;2.33;;;2.13;;
21825;SDS011;11075;47.944;11.776;2022-11-15T12:23:59;5.53;;;2.63;;
21825;SDS011;11075;47.944;11.776;2022-11-15T12:26:34;7.13;;;2.25;;
21825;SDS011;11075;47.944;11.776;2022-11-15T12:29:19;5.32;;;1.80;;
21825;SDS011;11075;47.944;11.776;2022-11-15T12:31:53;3.15;;;1.92;;
21825;SDS011;11075;47.944;11.776;2022-11-15T12:36:53;3.42;;;2.45;;
21825;SDS011;11075;47.944;11.776;2022-11-15T12:39:20;3.85;;;2.38;;
21825;SDS011;11075;47.944;11.776;2022-11-15T12:52:05;4.45;;;2.67;;
21825;SDS011;11075;47.944;11.776;2022-11-15T13:02:23;2.83;;;2.40;;
21825;SDS011;11075;47.944;11.776;2022-11-15T13:04:53;2.70;;;2.40;;
21825;SDS011;11075;47.944;11.776;2022-11-15T13:20:44;4.28;;;2.85;;
21825;SDS011;11075;47.944;11.776;2022-11-15T13:23:12;5.68;;;2.75;;
21825;SDS011;11075;47.944;11.776;2022-11-15T13:26:07;3.85;;;2.47;;
21825;SDS011;11075;47.944;11.776;2022-11-15T13:28:49;3.85;;;2.60;;
21825;SDS011;11075;47.944;11.776;2022-11-15T13:34:00;3.13;;;2.55;;
21825;SDS011;11075;47.944;11.776;2022-11-15T13:36:43;5.65;;;3.33;;
21825;SDS011;11075;47.944;11.776;2022-11-15T13:41:52;3.47;;;2.72;;
21825;SDS011;11075;47.944;11.776;2022-11-15T13:44:20;3.63;;;2.50;;
21825;SDS011;11075;47.944;11.776;2022-11-15T13:46:48;2.47;;;2.28;;
21825;SDS011;11075;47.944;11.776;2022-11-15T13:49:15;2.87;;;2.27;;
21825;SDS011;11075;47.944;11.776;2022-11-15T13:51:50;4.88;;;2.97;;
21825;SDS011;11075;47.944;11.776;2022-11-15T13:54:23;4.30;;;2.65;;
21825;SDS011;11075;47.944;11.776;2022-11-15T13:59:45;6.25;;;3.30;;
21825;SDS011;11075;47.944;11.776;2022-11-15T14:02:17;4.80;;;2.73;;
21825;SDS011;11075;47.944;11.776;2022-11-15T14:04:47;4.27;;;3.30;;
21825;SDS011;11075;47.944;11.776;2022-11-15T14:07:20;4.20;;;2.95;;
21825;SDS011;11075;47.944;11.776;2022-11-15T14:09:48;3.47;;;3.00;;
21825;SDS011;11075;47.944;11.776;2022-11-15T14:14:51;6.70;;;3.10;;
21825;SDS011;11075;47.944;11.776;2022-11-15T14:17:36;9.17;;;2.80;;
21825;SDS011;11075;47.944;11.776;2022-11-15T14:22:56;6.83;;;3.03;;
21825;SDS011;11075;47.944;11.776;2022-11-15T14:25:29;6.40;;;3.00;;
21825;SDS011;11075;47.944;11.776;2022-11-15T14:30:46;3.93;;;2.33;;
21825;SDS011;11075;47.944;11.776;2022-11-15T14:35:49;3.33;;;2.37;;
21825;SDS011;11075;47.944;11.776;2022-11-15T14:38:19;5.53;;;2.60;;
21825;SDS011;11075;47.944;11.776;2022-11-15T14:40:46;8.00;;;3.00;;
21825;SDS011;11075;47.944;11.776;2022-11-15T14:43:14;6.10;;;2.73;;
21825;SDS011;11075;47.944;11.776;2022-11-15T14:45:42;5.23;;;2.73;;
21825;SDS011;11075;47.944;11.776;2022-11-15T14:48:09;6.93;;;2.73;;
21825;SDS011;11075;47.944;11.776;2022-11-15T14:50:36;5.97;;;2.37;;
21825;SDS011;11075;47.944;11.776;2022-11-15T14:53:03;4.37;;;2.50;;
21825;SDS011;11075;47.944;11.776;2022-11-15T14:55:32;3.27;;;2.30;;
21825;SDS011;11075;47.944;11.776;2022-11-15T14:58:02;5.20;;;2.20;;
21825;SDS011;11075;47.944;11.776;2022-11-15T15:00:31;6.47;;;2.33;;
21825;SDS011;11075;47.944;11.776;2022-11-15T15:03:01;4.80;;;2.10;;
21825;SDS011;11075;47.944;11.776;2022-11-15T15:08:00;4.97;;;2.10;;
21825;SDS011;11075;47.944;11.776;2022-11-15T15:10:36;4.40;;;2.13;;
21825;SDS011;11075;47.944;11.776;2022-11-15T15:13:23;5.53;;;2.17;;
21825;SDS011;11075;47.944;11.776;2022-11-15T15:15:51;6.43;;;2.50;;
21825;SDS011;11075;47.944;11.776;2022-11-15T15:18:18;4.57;;;1.93;;
21825;SDS011;11075;47.944;11.776;2022-11-15T15:20:55;4.50;;;2.50;;
21825;SDS011;11075;47.944;11.776;2022-11-15T15:23:27;5.70;;;2.20;;
21825;SDS011;11075;47.944;11.776;2022-11-15T15:25:57;3.03;;;2.47;;
21825;SDS011;11075;47.944;11.776;2022-11-15T15:28:24;4.50;;;2.10;;
21825;SDS011;11075;47.944;11.776;2022-11-15T15:30:59;7.13;;;2.67;;
21825;SDS011;11075;47.944;11.776;2022-11-15T15:33:26;4.80;;;2.17;;
21825;SDS011;11075;47.944;11.776;2022-11-15T15:35:53;3.27;;;2.43;;
21825;SDS011;11075;47.944;11.776;2022-11-15T15:38:19;2.73;;;1.97;;
21825;SDS011;11075;47.944;11.776;2022-11-15T15:40:47;2.83;;;1.83;;
21825;SDS011;11075;47.944;11.776;2022-11-15T15:43:17;3.93;;;2.33;;
21825;SDS011;11075;47.944;11.776;2022-11-15T15:45:44;4.57;;;1.77;;
21825;SDS011;11075;47.944;11.776;2022-11-15T15:48:12;2.10;;;1.90;;
21825;SDS011;11075;47.944;11.776;2022-11-15T15:50:41;5.47;;;1.93;;
21825;SDS011;11075;47.944;11.776;2022-11-15T15:53:12;3.50;;;2.07;;
21825;SDS011;11075;47.944;11.776;2022-11-15T15:55:39;2.67;;;2.20;;
21825;SDS011;11075;47.944;11.776;2022-11-15T15:58:06;3.33;;;2.37;;
21825;SDS011;11075;47.944;11.776;2022-11-15T16:00:34;3.50;;;2.50;;
21825;SDS011;11075;47.944;11.776;2022-11-15T16:03:02;2.93;;;2.30;;
21825;SDS011;11075;47.944;11.776;2022-11-15T16:05:29;4.10;;;2.60;;
21825;SDS011;11075;47.944;11.776;2022-11-15T16:07:56;5.83;;;2.30;;
21825;SDS011;11075;47.944;11.776;2022-11-15T16:10:29;4.17;;;2.80;;
21825;SDS011;11075;47.944;11.776;2022-11-15T16:13:00;3.87;;;2.63;;
21825;SDS011;11075;47.944;11.776;2022-11-15T16:15:30;4.73;;;2.53;;
21825;SDS011;11075;47.944;11.776;2022-11-15T16:17:59;3.27;;;2.60;;
21825;SDS011;11075;47.944;11.776;2022-11-15T16:22:59;3.23;;;2.20;;
21825;SDS011;11075;47.944;11.776;2022-11-15T16:25:36;3.40;;;2.57;;
21825;SDS011;11075;47.944;11.776;2022-11-15T16:28:25;5.30;;;2.53;;
21825;SDS011;11075;47.944;11.776;2022-11-15T16:33:38;6.37;;;2.57;;
21825;SDS011;11075;47.944;11.776;2022-11-15T16:36:12;2.67;;;2.03;;
21825;SDS011;11075;47.944;11.776;2022-11-15T16:38:53;3.53;;;2.40;;
21825;SDS011;11075;47.944;11.776;2022-11-15T16:41:20;3.87;;;3.00;;
21825;SDS011;11075;47.944;11.776;2022-11-15T16:43:47;4.60;;;3.30;;
21825;SDS011;11075;47.944;11.776;2022-11-15T16:48:44;3.87;;;2.87;;
21825;SDS011;11075;47.944;11.776;2022-11-15T16:51:13;4.63;;;2.93;;
21825;SDS011;11075;47.944;11.776;2022-11-15T16:53:40;4.00;;;2.67;;
21825;SDS011;11075;47.944;11.776;2022-11-15T16:56:17;6.27;;;3.03;;
21825;SDS011;11075;47.944;11.776;2022-11-15T16:58:55;5.90;;;4.23;;
21825;SDS011;11075;47.944;11.776;2022-11-15T17:04:01;4.10;;;2.87;;
21825;SDS011;11075;47.944;11.776;2022-11-15T17:06:39;6.07;;;2.90;;
21825;SDS011;11075;47.944;11.776;2022-11-15T17:09:09;3.30;;;2.30;;
21825;SDS011;11075;47.944;11.776;2022-11-15T17:11:39;4.57;;;2.63;;
21825;SDS011;11075;47.944;11.776;2022-11-15T17:14:06;3.80;;;2.70;;
21825;SDS011;11075;47.944;11.776;2022-11-15T17:16:33;4.27;;;2.50;;
21825;SDS011;11075;47.944;11.776;2022-11-15T17:19:03;4.10;;;2.50;;
21825;SDS011;11075;47.944;11.776;2022-11-15T17:21:31;4.00;;;2.80;;
21825;SDS011;11075;47.944;11.776;2022-11-15T17:23:59;4.03;;;2.50;;
21825;SDS011;11075;47.944;11.776;2022-11-15T17:26:26;5.00;;;2.43;;
21825;SDS011;11075;47.944;11.776;2022-11-15T17:28:58;5.80;;;2.93;;
21825;SDS011;11075;47.944;11.776;2022-11-15T17:31:27;8.27;;;2.80;;
21825;SDS011;11075;47.944;11.776;2022-11-15T17:33:56;3.40;;;2.67;;
21825;SDS011;11075;47.944;11.776;2022-11-15T17:36:22;3.33;;;2.60;;
21825;SDS011;11075;47.944;11.776;2022-11-15T17:38:50;4.60;;;3.13;;
21825;SDS011;11075;47.944;11.776;2022-11-15T17:41:24;4.80;;;3.00;;
21825;SDS011;11075;47.944;11.776;2022-11-15T17:43:51;6.07;;;3.57;;
21825;SDS011;11075;47.944;11.776;2022-11-15T17:46:19;8.20;;;4.50;;
21825;SDS011;11075;47.944;11.776;2022-11-15T17:48:47;15.73;;;4.57;;
21825;SDS011;11075;47.944;11.776;2022-11-15T17:51:16;6.83;;;4.23;;
21825;SDS011;11075;47.944;11.776;2022-11-15T17:53:45;8.37;;;5.27;;
21825;SDS011;11075;47.944;11.776;2022-11-15T17:56:16;9.37;;;4.37;;
21825;SDS011;11075;47.944;11.776;2022-11-15T17:58:46;6.07;;;4.10;;
21825;SDS011;11075;47.944;11.776;2022-11-15T18:01:18;5.97;;;4.00;;
21825;SDS011;11075;47.944;11.776;2022-11-15T18:03:55;8.93;;;4.33;;
21825;SDS011;11075;47.944;11.776;2022-11-15T18:06:26;9.13;;;4.37;;
21825;SDS011;11075;47.944;11.776;2022-11-15T18:08:55;5.43;;;3.80;;
21825;SDS011;11075;47.944;11.776;2022-11-15T18:11:24;8.00;;;4.43;;
21825;SDS011;11075;47.944;11.776;2022-11-15T18:13:54;8.83;;;5.00;;
21825;SDS011;11075;47.944;11.776;2022-11-15T18:16:24;6.60;;;4.17;;
21825;SDS011;11075;47.944;11.776;2022-11-15T18:18:52;10.30;;;5.20;;
21825;SDS011;11075;47.944;11.776;2022-11-15T18:21:21;10.67;;;5.00;;
21825;SDS011;11075;47.944;11.776;2022-11-15T18:23:51;9.63;;;5.07;;
21825;SDS011;11075;47.944;11.776;2022-11-15T18:26:20;12.77;;;6.50;;
21825;SDS011;11075;47.944;11.776;2022-11-15T18:28:53;11.23;;;6.47;;
21825;SDS011;11075;47.944;11.776;2022-11-15T18:31:22;9.73;;;5.80;;
21825;SDS011;11075;47.944;11.776;2022-11-15T18:33:51;10.37;;;5.50;;